Seattle, Washington
Current Conditions -  °F | °C
As of 6:53 AM on Thursday 23 Oct 2014 (Local Time) from KBFI Reporting Station
Light Rain Light Rain  
Wind Chill: 54°   Ceiling: 6000
Heat Index: 54°   Visibility: 10mi
Dew Point: 48°   Wind: 15mph
Humidity: 80%   Direction: 140°SE
Pressure: 29.74"   Gusts: NA
Location:  47.6°N, 122.32°W
Report Text: KBFI 231353Z 14013KT 10SM -RA OVC060 12/09 A2974 RMK AO2 SLP072 P0003 T01220089
Loading
Personal Weather Stations






























Interactive Weather Map New forecast layout! Learn more

10-Day Weather Forecast

Advertisements
Track Severe Weather on mobile